Time;durP1;ratioP1;P1;durP2;ratioP2;P2;SDS_P1;SDS_P2;PMS_P1;PMS_P2;Temp;Humidity;BMP_temperature;BMP_pressure;BME280_temperature;BME280_humidity;BME280_pressure;Samples;Min_cycle;Max_cycle;Signal;HPM_P1;HPM_P2
2023/09/07 00:01:39;;;;;;;22.25;12.20;;;;;;;-144.73;100.00;54298.91;5033836;28;20084;-71
2023/09/07 00:04:06;;;;;;;12.48;9.15;;;;;;;-144.73;100.00;54259.91;5031887;28;20091;-72
2023/09/07 00:06:31;;;;;;;19.65;13.05;;;;;;;-144.73;100.00;54300.97;5033832;28;20055;-72
2023/09/07 00:08:57;;;;;;;14.50;7.00;;;;;;;-144.73;100.00;54311.22;5031955;28;20112;-71
2023/09/07 00:11:22;;;;;;;10.52;5.75;;;;;;;-144.73;100.00;54268.13;5032594;28;20026;-71
2023/09/07 00:13:48;;;;;;;11.50;5.93;;;;;;;-144.73;100.00;54309.19;5032281;28;20033;-72
2023/09/07 00:16:13;;;;;;;8.55;5.60;;;;;;;-144.73;100.00;54342.03;5032739;28;20466;-72
2023/09/07 00:18:38;;;;;;;9.82;5.15;;;;;;;-144.73;100.00;54317.38;5031915;28;20117;-71
2023/09/07 00:21:04;;;;;;;8.55;5.20;;;;;;;-144.73;100.00;54342.03;5032698;28;20463;-72
2023/09/07 00:23:30;;;;;;;12.23;4.80;;;;;;;-144.73;100.00;54264.03;5031931;28;20037;-71
2023/09/07 00:25:55;;;;;;;8.18;4.95;;;;;;;-144.73;100.00;54319.44;5032650;28;20035;-71
2023/09/07 00:28:22;;;;;;;6.93;4.07;;;;;;;-144.73;100.00;54268.13;5033080;28;20381;-71
2023/09/07 00:30:47;;;;;;;12.15;4.60;;;;;;;-144.73;100.00;54284.56;5031509;28;20017;-71
2023/09/07 00:33:12;;;;;;;16.90;4.65;;;;;;;-144.73;100.00;54313.28;5033192;28;20033;-71
2023/09/07 00:35:38;;;;;;;7.55;4.07;;;;;;;-144.73;100.00;54305.06;5032436;28;20053;-72
2023/09/07 00:38:03;;;;;;;7.43;4.30;;;;;;;-144.73;100.00;54325.59;5032839;28;20041;-71
2023/09/07 00:40:30;;;;;;;7.25;4.63;;;;;;;-144.73;100.00;54309.19;5033407;28;20121;-71
2023/09/07 00:42:55;;;;;;;9.23;4.38;;;;;;;-144.73;100.00;54300.97;5031360;28;20036;-71
2023/09/07 00:45:21;;;;;;;7.30;4.25;;;;;;;-144.73;100.00;54321.50;5033204;28;20029;-71
2023/09/07 00:47:47;;;;;;;8.85;4.35;;;;;;;-144.73;100.00;54255.81;5031466;28;20053;-71
2023/09/07 00:50:16;;;;;;;7.60;4.40;;;;;;;-144.73;100.00;54296.88;5031868;28;20028;-71
2023/09/07 00:52:46;;;;;;;8.02;4.15;;;;;;;-144.73;100.00;54321.50;5031646;28;20414;-71
2023/09/07 00:55:12;;;;;;;7.43;4.10;;;;;;;-144.73;100.00;54259.91;5031580;28;20052;-71
2023/09/07 00:57:39;;;;;;;10.40;5.22;;;;;;;-144.73;100.00;54300.97;5031346;28;20021;-71
2023/09/07 01:00:06;;;;;;;10.40;4.80;;;;;;;-144.73;100.00;54309.19;5032092;28;20025;-71
2023/09/07 01:02:31;;;;;;;6.03;4.60;;;;;;;-144.73;100.00;54309.19;5030531;28;20013;-72
2023/09/07 01:04:57;;;;;;;8.77;4.97;;;;;;;-144.73;100.00;54276.34;5031808;28;20033;-71
2023/09/07 01:07:34;;;;;;;5.07;4.30;;;;;;;-144.73;100.00;54268.13;5032380;28;20029;-72
2023/09/07 01:10:02;;;;;;;13.02;4.45;;;;;;;-144.73;100.00;54305.06;5031763;28;20033;-71
2023/09/07 01:12:28;;;;;;;8.63;4.45;;;;;;;-144.73;100.00;54321.50;5031198;28;20112;-71
2023/09/07 01:14:53;;;;;;;6.20;4.65;;;;;;;-144.73;100.00;54335.88;5031627;28;20063;-71
2023/09/07 01:17:21;;;;;;;6.43;4.65;;;;;;;-144.73;100.00;54292.75;5031600;28;20064;-70
2023/09/07 01:19:49;;;;;;;11.48;5.03;;;;;;;-144.73;100.00;54317.38;5031806;28;20041;-71
2023/09/07 01:22:17;;;;;;;8.25;4.60;;;;;;;-144.73;100.00;54362.53;5031503;28;20026;-71
2023/09/07 01:24:45;;;;;;;7.82;4.80;;;;;;;-144.73;100.00;54280.44;5030603;28;20026;-71
2023/09/07 01:27:13;;;;;;;10.60;5.40;;;;;;;-144.73;100.00;54309.19;5013102;28;20018;-72
2023/09/07 01:29:38;;;;;;;8.63;4.95;;;;;;;-144.73;100.00;54284.56;5030527;28;20057;-70
2023/09/07 01:32:04;;;;;;;11.30;5.30;;;;;;;-144.73;100.00;54321.50;5032324;28;20064;-71
2023/09/07 01:34:29;;;;;;;6.10;4.93;;;;;;;-144.73;100.00;54313.28;5030904;28;20041;-71
2023/09/07 01:36:55;;;;;;;5.90;4.88;;;;;;;-144.73;100.00;54300.97;5031175;28;20028;-71
2023/09/07 01:39:20;;;;;;;6.93;4.68;;;;;;;-144.73;100.00;54313.28;5030822;28;20034;-70
2023/09/07 01:41:45;;;;;;;6.82;4.93;;;;;;;-144.73;100.00;54325.59;5031159;28;20492;-71
2023/09/07 01:44:11;;;;;;;8.45;5.30;;;;;;;-144.73;100.00;54307.13;5030711;28;20041;-71
2023/09/07 01:46:36;;;;;;;6.75;4.28;;;;;;;-144.73;100.00;54331.75;5032699;28;20021;-71
2023/09/07 01:49:02;;;;;;;7.97;4.93;;;;;;;-144.73;100.00;54325.59;5030492;28;20041;-72
2023/09/07 01:51:28;;;;;;;7.88;5.38;;;;;;;-144.73;100.00;54284.56;5030707;28;20017;-71
2023/09/07 01:53:54;;;;;;;5.68;4.10;;;;;;;-144.73;100.00;54329.72;5031830;28;20048;-70
2023/09/07 01:56:19;;;;;;;10.20;5.50;;;;;;;-144.73;100.00;54327.66;5033019;28;20041;-71
2023/09/07 01:58:45;;;;;;;7.80;5.38;;;;;;;-144.73;100.00;54296.88;5032362;28;20113;-71
2023/09/07 02:01:31;;;;;;;8.30;4.90;;;;;;;-144.73;100.00;54321.50;5030902;28;20365;-71
2023/09/07 02:03:57;;;;;;;11.52;5.22;;;;;;;-144.73;100.00;54288.66;5032002;28;20040;-72
2023/09/07 02:06:23;;;;;;;7.28;4.93;;;;;;;-144.73;100.00;54313.28;5031233;28;20029;-71
2023/09/07 02:08:48;;;;;;;8.00;5.57;;;;;;;-144.73;100.00;54300.97;5031660;28;20029;-71
2023/09/07 02:11:14;;;;;;;6.07;5.22;;;;;;;-144.73;100.00;54284.56;5030730;28;20026;-71
2023/09/07 02:13:44;;;;;;;10.98;4.88;;;;;;;-144.73;100.00;54329.72;5032625;28;20423;-72
2023/09/07 02:16:09;;;;;;;8.27;5.57;;;;;;;-144.73;100.00;54342.03;5034637;28;20021;-71
2023/09/07 02:18:36;;;;;;;7.68;5.18;;;;;;;-144.73;100.00;54300.97;5034329;28;20034;-71
2023/09/07 02:21:03;;;;;;;11.43;5.63;;;;;;;-144.73;100.00;54350.22;5034742;28;20013;-71
2023/09/07 02:23:29;;;;;;;6.50;5.43;;;;;;;-144.73;100.00;54317.38;5035578;28;20037;-71
2023/09/07 02:25:54;;;;;;;10.25;6.35;;;;;;;-144.73;100.00;54292.75;5036226;28;20420;-71
2023/09/07 02:28:20;;;;;;;10.15;5.75;;;;;;;-144.73;100.00;54325.59;5035186;28;20126;-71
2023/09/07 02:30:45;;;;;;;7.80;5.22;;;;;;;-144.73;100.00;54358.44;5035360;28;20024;-71
2023/09/07 02:33:11;;;;;;;6.72;5.53;;;;;;;-144.73;100.00;54319.44;5034259;28;20114;-71
2023/09/07 02:35:39;;;;;;;14.68;6.90;;;;;;;-144.73;100.00;54350.22;5034996;28;20036;-71
2023/09/07 02:38:04;;;;;;;9.00;5.43;;;;;;;-144.73;100.00;54323.53;5035161;28;20029;-71
2023/09/07 02:40:30;;;;;;;12.07;5.78;;;;;;;-144.73;100.00;54366.66;5034484;28;20483;-71
2023/09/07 02:42:55;;;;;;;13.68;5.88;;;;;;;-144.73;100.00;54305.06;5033944;28;20025;-71
2023/09/07 02:45:21;;;;;;;7.53;4.85;;;;;;;-144.73;100.00;54354.34;5034334;28;20036;-71
2023/09/07 02:47:46;;;;;;;17.23;7.00;;;;;;;-144.73;100.00;54342.03;5034021;28;20065;-71
2023/09/07 02:50:12;;;;;;;8.75;6.10;;;;;;;-144.73;100.00;54342.03;5034157;28;20083;-71
2023/09/07 02:52:39;;;;;;;10.75;6.47;;;;;;;-144.73;100.00;54362.53;5033816;28;20029;-71
2023/09/07 02:55:06;;;;;;;11.18;6.40;;;;;;;-144.73;100.00;54348.19;5034262;28;20047;-70
2023/09/07 02:57:31;;;;;;;11.82;6.07;;;;;;;-144.73;100.00;54354.34;5033113;28;20441;-71
2023/09/07 02:59:57;;;;;;;8.27;5.45;;;;;;;-144.73;100.00;54309.19;5033987;28;20045;-71
2023/09/07 03:02:22;;;;;;;7.40;5.90;;;;;;;-144.73;100.00;54315.34;5033225;28;20025;-72
2023/09/07 03:04:53;;;;;;;9.73;5.53;;;;;;;-144.73;100.00;54346.13;5034242;28;20025;-71
2023/09/07 03:07:18;;;;;;;10.15;6.10;;;;;;;-144.73;100.00;54364.59;5033991;28;20021;-71
2023/09/07 03:09:44;;;;;;;9.65;6.03;;;;;;;-144.73;100.00;54350.22;5033781;28;20093;-71
2023/09/07 03:12:09;;;;;;;9.43;6.07;;;;;;;-144.73;100.00;54374.84;5035159;28;20057;-71
2023/09/07 03:14:35;;;;;;;12.25;5.35;;;;;;;-144.73;100.00;54325.59;5033343;28;20516;-71
2023/09/07 03:17:01;;;;;;;8.88;6.38;;;;;;;-144.73;100.00;54309.19;5033888;28;20026;-73
2023/09/07 03:19:27;;;;;;;13.70;5.80;;;;;;;-144.73;100.00;54337.91;5034537;28;20064;-72
2023/09/07 03:21:52;;;;;;;14.30;6.00;;;;;;;-144.73;100.00;54354.34;5033323;28;20025;-70
2023/09/07 03:24:18;;;;;;;10.48;6.15;;;;;;;-144.73;100.00;54303.03;5033201;28;20049;-70
2023/09/07 03:26:44;;;;;;;11.93;6.43;;;;;;;-144.73;100.00;54356.38;5035213;28;20032;-70
2023/09/07 03:29:09;;;;;;;13.07;6.25;;;;;;;-144.73;100.00;54350.22;5033375;28;20040;-71
2023/09/07 03:31:35;;;;;;;14.27;6.82;;;;;;;-144.73;100.00;54354.34;5032484;28;20026;-71
2023/09/07 03:34:01;;;;;;;9.43;6.18;;;;;;;-144.73;100.00;54342.03;5032022;28;20107;-70
2023/09/07 03:36:26;;;;;;;9.20;6.65;;;;;;;-144.73;100.00;54337.91;5033852;28;20029;-71
2023/09/07 03:38:51;;;;;;;10.32;6.53;;;;;;;-144.73;100.00;54313.28;5033020;28;20033;-71
2023/09/07 03:41:17;;;;;;;13.68;6.25;;;;;;;-144.73;100.00;54317.38;5033832;28;20057;-70
2023/09/07 03:43:42;;;;;;;8.50;6.45;;;;;;;-144.73;100.00;54350.22;5032414;28;20428;-71
2023/09/07 03:46:07;;;;;;;8.52;5.57;;;;;;;-144.73;100.00;54358.44;5033320;28;20021;-70
2023/09/07 03:48:33;;;;;;;15.65;6.95;;;;;;;-144.73;100.00;54354.34;5033233;28;20496;-70
2023/09/07 03:50:58;;;;;;;9.38;6.03;;;;;;;-144.73;100.00;54356.38;5033938;28;20491;-70
2023/09/07 03:53:23;;;;;;;9.63;6.68;;;;;;;-144.73;100.00;54337.91;5032095;28;20048;-69
2023/09/07 03:55:49;;;;;;;17.95;6.55;;;;;;;-144.73;100.00;54337.91;5033675;28;20025;-71
2023/09/07 03:58:14;;;;;;;9.38;6.25;;;;;;;-144.73;100.00;54329.72;5033710;28;20140;-71
2023/09/07 04:00:44;;;;;;;14.88;6.13;;;;;;;-144.73;100.00;54342.03;5032818;28;20025;-71
2023/09/07 04:03:09;;;;;;;7.22;5.95;;;;;;;-144.73;100.00;54329.72;5032314;28;20112;-72
2023/09/07 04:05:38;;;;;;;8.82;5.90;;;;;;;-144.73;100.00;54389.22;5033721;28;20110;-70
2023/09/07 04:08:04;;;;;;;13.93;6.40;;;;;;;-144.73;100.00;54348.19;5032423;28;20029;-71
2023/09/07 04:10:29;;;;;;;10.32;6.72;;;;;;;-144.73;100.00;54321.50;5032418;28;20101;-70
2023/09/07 04:12:55;;;;;;;12.13;7.22;;;;;;;-144.73;100.00;54356.38;5033205;28;20038;-71
2023/09/07 04:15:20;;;;;;;10.85;7.50;;;;;;;-144.73;100.00;54329.72;5033019;28;20091;-70
2023/09/07 04:17:46;;;;;;;11.65;7.20;;;;;;;-144.73;100.00;54321.50;5032121;28;20439;-71
2023/09/07 04:20:11;;;;;;;12.48;7.78;;;;;;;-144.73;100.00;54378.97;5032098;28;20087;-71
2023/09/07 04:22:38;;;;;;;12.07;7.15;;;;;;;-144.73;100.00;54321.50;5033273;28;20083;-70
2023/09/07 04:25:04;;;;;;;14.05;7.65;;;;;;;-144.73;100.00;54362.53;5031987;28;20076;-71
2023/09/07 04:27:30;;;;;;;9.63;7.90;;;;;;;-144.73;100.00;54344.06;5031473;28;20025;-71
2023/09/07 04:29:56;;;;;;;11.30;8.25;;;;;;;-144.73;100.00;54337.91;5033162;28;20025;-70
2023/09/07 04:32:21;;;;;;;11.35;7.85;;;;;;;-144.73;100.00;54358.44;5031932;28;20025;-71
2023/09/07 04:34:47;;;;;;;13.88;8.07;;;;;;;-144.73;100.00;54358.44;5030910;28;20033;-70
2023/09/07 04:37:12;;;;;;;13.18;7.57;;;;;;;-144.73;100.00;54346.13;5031103;28;20028;-72
2023/09/07 04:39:37;;;;;;;14.43;7.18;;;;;;;-144.73;100.00;54337.91;5031253;28;20067;-70
2023/09/07 04:42:03;;;;;;;11.27;8.02;;;;;;;-144.73;100.00;54342.03;5032111;28;20104;-71
2023/09/07 04:44:28;;;;;;;20.27;7.28;;;;;;;-144.73;100.00;54354.34;5031111;28;20044;-71
2023/09/07 04:46:57;;;;;;;11.52;7.78;;;;;;;-144.73;100.00;54337.91;5031798;28;20037;-71
2023/09/07 04:49:26;;;;;;;19.10;7.90;;;;;;;-144.73;100.00;54368.69;5031051;28;20060;-71
2023/09/07 04:51:54;;;;;;;18.95;8.43;;;;;;;-144.73;100.00;54368.69;5031421;28;20021;-71
2023/09/07 04:54:20;;;;;;;16.00;7.78;;;;;;;-144.73;100.00;54374.84;5030693;28;20040;-71
2023/09/07 04:56:45;;;;;;;17.25;9.85;;;;;;;-144.73;100.00;54317.38;5031043;28;20029;-71
2023/09/07 04:59:10;;;;;;;21.40;8.88;;;;;;;-144.73;100.00;54350.22;5032065;28;20036;-71
2023/09/07 05:01:36;;;;;;;17.02;8.60;;;;;;;-144.73;100.00;54356.38;5032797;28;20049;-71
2023/09/07 05:04:03;;;;;;;19.45;8.82;;;;;;;-144.73;100.00;54313.28;5030981;28;20025;-69
2023/09/07 05:06:29;;;;;;;17.65;9.30;;;;;;;-144.73;100.00;54342.03;5031396;28;20040;-71
2023/09/07 05:08:54;;;;;;;13.57;7.68;;;;;;;-144.73;100.00;54350.22;5031514;28;20033;-71
2023/09/07 05:11:40;;;;;;;17.35;7.93;;;;;;;-144.73;100.00;54374.84;5032233;28;20026;-71
2023/09/07 05:14:05;;;;;;;10.45;7.85;;;;;;;-144.73;100.00;54374.84;5030427;28;20044;-71
2023/09/07 05:16:30;;;;;;;18.88;8.38;;;;;;;-144.73;100.00;54339.97;5031224;28;20033;-71
2023/09/07 05:18:56;;;;;;;11.90;7.32;;;;;;;-144.73;100.00;54317.38;5031288;28;20029;-71
2023/09/07 05:21:21;;;;;;;14.57;7.72;;;;;;;-144.73;100.00;54333.81;5030917;28;20021;-72
2023/09/07 05:23:47;;;;;;;17.58;8.68;;;;;;;-144.73;100.00;54362.53;5030646;28;20063;-71
2023/09/07 05:26:12;;;;;;;10.07;7.45;;;;;;;-144.73;100.00;54346.13;5030780;28;20032;-70
2023/09/07 05:28:41;;;;;;;17.92;8.52;;;;;;;-144.73;100.00;54374.84;5030460;28;20034;-70
2023/09/07 05:31:06;;;;;;;10.48;7.60;;;;;;;-144.73;100.00;54348.19;5031236;28;20018;-71
2023/09/07 05:33:31;;;;;;;12.23;7.32;;;;;;;-144.73;100.00;54356.38;5031154;28;20116;-70
2023/09/07 05:35:57;;;;;;;16.40;8.35;;;;;;;-144.73;100.00;54366.66;5032171;28;20029;-71
2023/09/07 05:38:22;;;;;;;17.85;7.80;;;;;;;-144.73;100.00;54383.06;5030554;28;20061;-71
2023/09/07 05:40:50;;;;;;;11.30;8.15;;;;;;;-144.73;100.00;54366.66;5032343;28;20022;-71
2023/09/07 05:43:15;;;;;;;18.95;11.18;;;;;;;-144.73;100.00;54352.28;5030632;28;20029;-70
2023/09/07 05:45:41;;;;;;;14.07;8.93;;;;;;;-144.73;100.00;54383.06;5032671;28;20029;-71
2023/09/07 05:48:07;;;;;;;10.00;7.75;;;;;;;-144.73;100.00;54342.03;5032356;28;20029;-71
2023/09/07 05:50:37;;;;;;;9.50;6.65;;;;;;;-144.73;100.00;54370.75;5034924;28;20105;-71
2023/09/07 05:53:03;;;;;;;21.92;7.47;;;;;;;-144.73;100.00;54356.38;5034469;28;20045;-71
2023/09/07 05:55:29;;;;;;;12.20;7.68;;;;;;;-144.73;100.00;54370.75;5035079;28;20025;-72
2023/09/07 05:57:55;;;;;;;18.08;7.93;;;;;;;-144.73;100.00;54331.75;5034603;28;20033;-71
2023/09/07 06:00:21;;;;;;;19.13;8.00;;;;;;;-144.73;100.00;54374.84;5034773;28;20021;-70
2023/09/07 06:02:47;;;;;;;13.30;7.43;;;;;;;-144.73;100.00;54313.28;5034062;28;20026;-71
2023/09/07 06:05:13;;;;;;;13.82;6.97;;;;;;;-144.73;100.00;54352.28;5034654;28;20029;-70
2023/09/07 06:07:38;;;;;;;18.88;7.57;;;;;;;-144.73;100.00;54366.66;5034057;28;20061;-70
2023/09/07 06:10:05;;;;;;;32.35;8.07;;;;;;;-144.73;100.00;54370.75;5034175;28;20049;-71
2023/09/07 06:12:33;;;;;;;21.08;8.25;;;;;;;-144.73;100.00;54364.59;5034061;28;20021;-71
2023/09/07 06:15:00;;;;;;;15.07;7.82;;;;;;;-144.73;100.00;54342.03;5034319;28;20079;-71
2023/09/07 06:17:27;;;;;;;15.60;7.22;;;;;;;-144.73;100.00;54354.34;5035006;28;20022;-72
2023/09/07 06:19:52;;;;;;;11.65;6.82;;;;;;;-144.73;100.00;54395.38;5035092;28;20021;-71
2023/09/07 06:22:17;;;;;;;23.08;7.95;;;;;;;-144.73;100.00;54378.97;5031601;28;20022;-71
2023/09/07 06:24:43;;;;;;;27.10;8.35;;;;;;;-144.73;100.00;54391.28;5030542;28;20037;-71
2023/09/07 06:27:08;;;;;;;16.70;7.60;;;;;;;-144.73;100.00;54339.97;5031406;28;20022;-71
2023/09/07 06:29:34;;;;;;;17.75;7.10;;;;;;;-144.73;100.00;54366.66;5030353;28;20048;-71
2023/09/07 06:31:59;;;;;;;10.57;6.68;;;;;;;-144.73;100.00;54378.97;5036349;28;20024;-70
2023/09/07 06:34:24;;;;;;;18.63;7.00;;;;;;;-144.73;100.00;54358.44;5051296;28;20086;-71
2023/09/07 06:36:50;;;;;;;12.10;6.57;;;;;;;-144.73;100.00;54317.38;5050373;28;20025;-71
2023/09/07 06:39:15;;;;;;;9.20;5.82;;;;;;;-144.73;100.00;54313.28;5048862;28;20025;-71
2023/09/07 06:41:41;;;;;;;12.10;6.75;;;;;;;-144.73;100.00;54321.50;5049341;28;20128;-72
2023/09/07 06:44:07;;;;;;;15.00;6.80;;;;;;;-144.73;100.00;54350.22;5037316;28;20033;-71
2023/09/07 06:46:33;;;;;;;8.07;6.10;;;;;;;-144.73;100.00;54374.84;5049636;28;20047;-71
2023/09/07 06:48:58;;;;;;;12.77;6.72;;;;;;;-144.73;100.00;54362.53;5049494;28;20039;-71
2023/09/07 06:51:23;;;;;;;12.45;7.72;;;;;;;-144.73;100.00;54354.34;5046555;28;20032;-71
2023/09/07 06:53:50;;;;;;;14.65;6.45;;;;;;;-144.73;100.00;54378.97;5045666;28;20037;-71
2023/09/07 06:56:15;;;;;;;12.38;7.10;;;;;;;-144.73;100.00;54374.84;5049105;28;20101;-70
2023/09/07 06:58:41;;;;;;;12.00;6.40;;;;;;;-144.73;100.00;54313.28;5043112;28;20491;-71
2023/09/07 07:01:07;;;;;;;10.52;6.53;;;;;;;-144.73;100.00;54346.13;5049839;28;20035;-71
2023/09/07 07:03:34;;;;;;;12.68;5.82;;;;;;;-144.73;100.00;54364.59;5041417;28;20071;-71
2023/09/07 07:06:00;;;;;;;9.43;6.07;;;;;;;-144.73;100.00;54356.38;5049838;28;20027;-72
2023/09/07 07:08:25;;;;;;;17.80;6.93;;;;;;;-144.73;100.00;54346.13;5048873;28;20037;-72
2023/09/07 07:10:50;;;;;;;9.50;5.40;;;;;;;-144.73;100.00;54378.97;5051455;28;20040;-71
2023/09/07 07:13:16;;;;;;;10.50;6.30;;;;;;;-144.73;100.00;54329.72;5038853;28;20075;-71
2023/09/07 07:15:42;;;;;;;17.08;6.35;;;;;;;-144.73;100.00;54358.44;5049446;28;20021;-71
2023/09/07 07:18:10;;;;;;;12.73;6.80;;;;;;;-144.73;100.00;54337.91;5037101;28;20060;-72
2023/09/07 07:20:42;;;;;;;11.85;5.28;;;;;;;-144.73;100.00;54372.81;5046255;28;20031;-71
2023/09/07 07:23:08;;;;;;;10.52;5.65;;;;;;;-144.73;100.00;54346.13;5037041;28;20025;-71
2023/09/07 07:25:34;;;;;;;8.38;5.45;;;;;;;-144.73;100.00;54333.81;5047498;28;20063;-72
2023/09/07 07:28:00;;;;;;;9.40;5.63;;;;;;;-144.73;100.00;54350.22;5045802;28;20098;-72
2023/09/07 07:30:29;;;;;;;11.38;5.93;;;;;;;-144.73;100.00;54350.22;5045347;28;20028;-71
2023/09/07 07:32:55;;;;;;;8.68;5.93;;;;;;;-144.73;100.00;54368.69;5046197;28;20033;-72
2023/09/07 07:35:21;;;;;;;20.65;6.10;;;;;;;-144.73;100.00;54333.81;5046296;28;20029;-72
2023/09/07 07:37:46;;;;;;;10.00;5.50;;;;;;;-144.73;100.00;54337.91;5045990;28;20033;-70
2023/09/07 07:40:11;;;;;;;20.85;9.48;;;;;;;-144.73;100.00;54323.53;5045155;28;20021;-71
2023/09/07 07:42:37;;;;;;;18.52;6.18;;;;;;;-144.73;100.00;54331.75;5044425;28;20038;-71
2023/09/07 07:45:03;;;;;;;9.02;5.85;;;;;;;-144.73;100.00;54294.81;5042331;28;20033;-71
2023/09/07 07:47:28;;;;;;;10.48;6.03;;;;;;;-144.73;100.00;54333.81;5043220;28;20032;-71
2023/09/07 07:49:53;;;;;;;10.13;5.82;;;;;;;-144.73;100.00;54346.13;5045005;28;20027;-70
2023/09/07 07:52:19;;;;;;;13.02;5.38;;;;;;;-144.73;100.00;54259.91;5044120;28;20025;-71
2023/09/07 07:54:44;;;;;;;7.13;5.28;;;;;;;-144.73;100.00;54300.97;5044337;28;20025;-71
2023/09/07 07:57:10;;;;;;;10.27;5.57;;;;;;;-144.73;100.00;54331.75;5046990;28;20033;-71
2023/09/07 07:59:36;;;;;;;14.82;6.18;;;;;;;-144.73;100.00;54280.44;5043278;28;20037;-71
2023/09/07 08:02:01;;;;;;;11.10;6.53;;;;;;;-144.73;100.00;54342.03;5042065;28;20029;-70
2023/09/07 08:04:27;;;;;;;12.95;5.97;;;;;;;-144.73;100.00;54342.03;5042804;28;20045;-71
2023/09/07 08:06:57;;;;;;;9.07;6.40;;;;;;;-144.73;100.00;54354.34;5044647;28;20121;-71
2023/09/07 08:09:22;;;;;;;13.88;5.82;;;;;;;-144.73;100.00;54313.28;5044277;28;20112;-70
2023/09/07 08:11:47;;;;;;;13.32;5.30;;;;;;;-144.73;100.00;54268.13;5044706;28;20564;-71
2023/09/07 08:14:13;;;;;;;15.93;5.03;;;;;;;-144.73;100.00;54311.22;5044612;28;20044;-71
2023/09/07 08:16:38;;;;;;;12.35;5.70;;;;;;;-144.73;100.00;54276.34;5042698;28;20032;-71
2023/09/07 08:19:04;;;;;;;11.93;5.10;;;;;;;-144.73;100.00;54305.06;5043677;28;20043;-71
2023/09/07 08:21:29;;;;;;;10.50;5.38;;;;;;;-144.73;100.00;54342.03;5044247;28;20438;-71
2023/09/07 08:23:55;;;;;;;9.23;5.50;;;;;;;-144.73;100.00;54305.06;5044134;28;20040;-72
2023/09/07 08:26:21;;;;;;;14.30;5.43;;;;;;;-144.73;100.00;54335.88;5046212;28;20024;-72
2023/09/07 08:28:46;;;;;;;10.27;5.63;;;;;;;-144.73;100.00;54276.34;5045897;28;20033;-72
2023/09/07 08:31:14;;;;;;;14.43;5.45;;;;;;;-144.73;100.00;54296.88;5044099;28;20170;-72
2023/09/07 08:33:40;;;;;;;10.95;5.15;;;;;;;-144.73;100.00;54317.38;5044506;28;20041;-72
2023/09/07 08:36:06;;;;;;;8.95;5.72;;;;;;;-144.73;100.00;54348.19;5044562;28;20028;-72
2023/09/07 08:38:31;;;;;;;13.45;5.15;;;;;;;-144.73;100.00;54296.88;5044746;28;20111;-72
2023/09/07 08:41:04;;;;;;;13.30;6.03;;;;;;;-144.73;100.00;54303.03;5046553;28;20127;-72
2023/09/07 08:43:34;;;;;;;10.90;5.30;;;;;;;-144.73;100.00;54296.88;5046092;28;20422;-72
2023/09/07 08:46:09;;;;;;;11.77;5.40;;;;;;;-144.73;100.00;54300.97;5043491;28;20117;-72
2023/09/07 08:48:36;;;;;;;6.57;5.20;;;;;;;-144.73;100.00;54239.41;5044494;28;20124;-72
2023/09/07 08:51:02;;;;;;;16.45;5.13;;;;;;;-144.73;99.52;54288.66;5045198;28;20013;-71
2023/09/07 08:53:31;;;;;;;8.07;4.82;;;;;;;-144.73;98.46;54276.34;5046071;28;20049;-72
2023/09/07 08:55:56;;;;;;;14.88;4.60;;;;;;;-144.73;97.97;54305.06;5042313;28;20029;-72
2023/09/07 08:58:22;;;;;;;7.28;4.75;;;;;;;-144.73;95.51;54276.34;5042286;28;20051;-72
2023/09/07 09:00:49;;;;;;;9.88;4.90;;;;;;;-144.73;95.15;54276.34;5046840;28;20052;-71
2023/09/07 09:03:14;;;;;;;8.98;5.13;;;;;;;-144.73;90.67;54337.91;5044236;28;20141;-71
2023/09/07 09:05:41;;;;;;;8.18;4.78;;;;;;;-144.73;86.72;54249.66;5042768;28;20057;-71
2023/09/07 09:08:06;;;;;;;9.80;4.38;;;;;;;-144.73;91.22;54276.34;5044399;28;20040;-72
2023/09/07 09:10:32;;;;;;;9.15;4.60;;;;;;;-144.73;89.75;54313.28;5044373;28;20040;-72
2023/09/07 09:12:59;;;;;;;10.45;4.55;;;;;;;-144.73;89.46;54276.34;5044554;28;20132;-71
2023/09/07 09:15:27;;;;;;;15.43;5.30;;;;;;;-144.73;86.69;54227.09;5041674;28;20031;-74
2023/09/07 09:17:53;;;;;;;8.82;4.97;;;;;;;-144.73;84.36;54282.50;5045161;28;20447;-72
2023/09/07 09:20:25;;;;;;;6.40;4.38;;;;;;;-144.73;83.71;54235.28;5046124;28;20075;-71
2023/09/07 09:22:55;;;;;;;6.80;4.72;;;;;;;-144.73;84.31;54233.25;5044331;28;20091;-70
2023/09/07 09:25:21;;;;;;;13.85;5.43;;;;;;;-144.73;82.39;54243.50;5043556;28;20116;-71
2023/09/07 09:27:47;;;;;;;12.75;4.90;;;;;;;-144.73;84.08;54276.34;5043911;28;20108;-71
2023/09/07 09:30:15;;;;;;;15.77;4.63;;;;;;;-144.73;81.50;54284.56;5042329;28;20033;-72
2023/09/07 09:32:43;;;;;;;9.85;4.85;;;;;;;-144.73;78.08;54249.66;5044330;28;20044;-71
2023/09/07 09:35:09;;;;;;;11.40;4.90;;;;;;;-144.73;78.36;54276.34;5044105;28;20040;-70
2023/09/07 09:37:43;;;;;;;9.40;5.50;;;;;;;-144.73;76.71;54249.66;5044455;28;20029;-72
2023/09/07 09:40:10;;;;;;;9.93;4.40;;;;;;;-144.73;77.39;54257.88;5046852;28;20055;-71
2023/09/07 09:42:36;;;;;;;12.95;4.93;;;;;;;-144.73;76.59;54266.06;5045676;28;20017;-70
2023/09/07 09:45:05;;;;;;;25.38;4.93;;;;;;;-144.73;77.32;54255.81;5046752;28;20603;-71
2023/09/07 09:47:31;;;;;;;9.07;4.70;;;;;;;-144.73;74.89;54235.28;5041417;28;20094;-71
2023/09/07 09:49:57;;;;;;;11.63;4.63;;;;;;;-144.73;74.31;54233.25;5047255;28;20104;-72
2023/09/07 09:52:24;;;;;;;10.45;5.03;;;;;;;-144.73;75.44;54243.50;5042616;28;20104;-72
2023/09/07 09:54:51;;;;;;;7.18;4.85;;;;;;;-144.73;72.93;54251.72;5041984;28;20115;-72
2023/09/07 09:57:16;;;;;;;6.60;4.43;;;;;;;-144.73;71.97;54247.59;5045869;28;20116;-71
2023/09/07 09:59:43;;;;;;;8.60;4.65;;;;;;;-144.73;69.99;54239.41;5044143;28;20131;-72
2023/09/07 10:02:10;;;;;;;9.63;4.60;;;;;;;-144.73;72.51;54247.59;5045410;28;20017;-72
2023/09/07 10:04:36;;;;;;;8.48;4.43;;;;;;;-144.73;72.53;54210.66;5043912;28;20037;-72
2023/09/07 10:07:05;;;;;;;7.57;4.80;;;;;;;-144.73;68.98;54218.88;5046310;28;20116;-72
2023/09/07 10:09:33;;;;;;;7.85;4.25;;;;;;;-144.73;66.89;54165.50;5044798;28;20029;-72
2023/09/07 10:11:59;;;;;;;11.27;3.80;;;;;;;-144.73;66.19;54222.97;5045375;28;20021;-73
2023/09/07 10:14:25;;;;;;;14.85;3.95;;;;;;;-144.73;67.17;54231.19;5044470;28;20090;-72
2023/09/07 10:16:55;;;;;;;13.15;4.18;;;;;;;-144.73;65.85;54231.19;5043097;28;20025;-72
2023/09/07 10:19:25;;;;;;;14.95;3.83;;;;;;;-144.73;64.15;54222.97;5045005;28;20040;-71
2023/09/07 10:21:53;;;;;;;6.18;3.92;;;;;;;-144.73;64.61;54229.13;5044392;28;20017;-72
2023/09/07 10:24:35;;;;;;;13.02;4.38;;;;;;;-144.73;65.44;54231.19;5042625;28;20037;-72
2023/09/07 10:27:06;;;;;;;7.28;3.60;;;;;;;-144.73;66.25;54266.06;5043023;28;20041;-72
2023/09/07 10:29:45;;;;;;;8.43;4.03;;;;;;;-144.73;62.98;54247.59;5026222;28;20117;-71
2023/09/07 10:32:12;;;;;;;10.98;3.45;;;;;;;-144.73;62.32;54169.63;5024524;28;20276;-72
2023/09/07 10:34:39;;;;;;;10.45;4.50;;;;;;;-144.73;62.05;54206.56;5027024;28;20441;-71
2023/09/07 10:37:07;;;;;;;9.05;4.10;;;;;;;-144.73;60.82;54239.41;5033608;28;20100;-72
2023/09/07 10:39:32;;;;;;;13.43;3.70;;;;;;;-144.73;61.39;54257.88;5032068;28;20033;-72
2023/09/07 10:41:58;;;;;;;16.33;3.65;;;;;;;-144.73;61.09;54227.09;5045596;28;20074;-71
2023/09/07 10:44:27;;;;;;;15.00;4.32;;;;;;;-144.73;60.50;54218.88;5033904;28;20049;-72
2023/09/07 10:46:54;;;;;;;10.65;4.20;;;;;;;-144.73;59.45;54202.44;5049172;28;20037;-72
2023/09/07 10:49:19;;;;;;;9.55;3.75;;;;;;;-144.73;58.82;54231.19;5043028;28;20033;-72
2023/09/07 10:51:48;;;;;;;15.32;3.97;;;;;;;-144.73;56.96;54190.13;5033439;28;20033;-72
2023/09/07 10:54:24;;;;;;;7.75;4.35;;;;;;;-144.73;57.74;54202.44;5049892;28;20050;-72
2023/09/07 10:56:50;;;;;;;9.18;3.90;;;;;;;-144.73;58.68;54212.72;5035183;28;20022;-71
2023/09/07 10:59:17;;;;;;;10.93;4.28;;;;;;;-144.73;58.24;54190.13;5043482;28;20029;-72
2023/09/07 11:01:46;;;;;;;10.77;4.28;;;;;;;-144.73;55.38;54181.94;5048222;28;20017;-72
2023/09/07 11:04:11;;;;;;;13.63;4.32;;;;;;;-144.73;56.31;54181.94;5047074;28;20041;-72